sensor_id;sensor_type;location;lat;lon;timestamp;P1;durP1;ratioP1;P2;durP2;ratioP2
12816;SDS011;6473;51.552;6.716;2022-12-11T00:01:26;38.80;;;14.30;;
12816;SDS011;6473;51.552;6.716;2022-12-11T00:03:54;46.83;;;16.27;;
12816;SDS011;6473;51.552;6.716;2022-12-11T00:06:22;38.57;;;14.73;;
12816;SDS011;6473;51.552;6.716;2022-12-11T00:08:49;49.47;;;15.50;;
12816;SDS011;6473;51.552;6.716;2022-12-11T00:11:17;43.17;;;15.40;;
12816;SDS011;6473;51.552;6.716;2022-12-11T00:13:44;43.40;;;16.23;;
12816;SDS011;6473;51.552;6.716;2022-12-11T00:16:12;56.77;;;17.20;;
12816;SDS011;6473;51.552;6.716;2022-12-11T00:18:41;41.30;;;16.40;;
12816;SDS011;6473;51.552;6.716;2022-12-11T00:21:10;51.57;;;17.17;;
12816;SDS011;6473;51.552;6.716;2022-12-11T00:23:38;52.67;;;17.07;;
12816;SDS011;6473;51.552;6.716;2022-12-11T00:26:06;50.40;;;17.93;;
12816;SDS011;6473;51.552;6.716;2022-12-11T00:28:34;46.97;;;16.90;;
12816;SDS011;6473;51.552;6.716;2022-12-11T00:31:02;54.10;;;17.83;;
12816;SDS011;6473;51.552;6.716;2022-12-11T00:33:30;48.43;;;17.63;;
12816;SDS011;6473;51.552;6.716;2022-12-11T00:35:59;59.63;;;18.57;;
12816;SDS011;6473;51.552;6.716;2022-12-11T00:38:26;51.67;;;18.67;;
12816;SDS011;6473;51.552;6.716;2022-12-11T00:40:56;66.87;;;18.87;;
12816;SDS011;6473;51.552;6.716;2022-12-11T00:43:24;54.53;;;19.17;;
12816;SDS011;6473;51.552;6.716;2022-12-11T00:45:51;54.03;;;18.17;;
12816;SDS011;6473;51.552;6.716;2022-12-11T00:48:18;53.77;;;18.60;;
12816;SDS011;6473;51.552;6.716;2022-12-11T00:50:46;54.23;;;18.33;;
12816;SDS011;6473;51.552;6.716;2022-12-11T00:53:14;56.47;;;19.07;;
12816;SDS011;6473;51.552;6.716;2022-12-11T00:55:41;63.27;;;18.43;;
12816;SDS011;6473;51.552;6.716;2022-12-11T00:58:09;49.73;;;17.63;;
12816;SDS011;6473;51.552;6.716;2022-12-11T01:00:37;59.90;;;18.90;;
12816;SDS011;6473;51.552;6.716;2022-12-11T01:03:04;58.57;;;18.10;;
12816;SDS011;6473;51.552;6.716;2022-12-11T01:05:32;51.47;;;17.43;;
12816;SDS011;6473;51.552;6.716;2022-12-11T01:08:00;49.47;;;17.90;;
12816;SDS011;6473;51.552;6.716;2022-12-11T01:10:29;58.20;;;18.13;;
12816;SDS011;6473;51.552;6.716;2022-12-11T01:12:56;55.20;;;18.10;;
12816;SDS011;6473;51.552;6.716;2022-12-11T01:15:27;58.13;;;18.17;;
12816;SDS011;6473;51.552;6.716;2022-12-11T01:17:55;57.87;;;18.70;;
12816;SDS011;6473;51.552;6.716;2022-12-11T01:20:23;61.00;;;18.27;;
12816;SDS011;6473;51.552;6.716;2022-12-11T01:22:53;55.53;;;17.30;;
12816;SDS011;6473;51.552;6.716;2022-12-11T01:25:20;57.70;;;18.20;;
12816;SDS011;6473;51.552;6.716;2022-12-11T01:35:34;52.90;;;18.50;;
12816;SDS011;6473;51.552;6.716;2022-12-11T01:38:01;64.70;;;19.63;;
12816;SDS011;6473;51.552;6.716;2022-12-11T01:40:28;47.33;;;19.10;;
12816;SDS011;6473;51.552;6.716;2022-12-11T01:42:55;54.57;;;19.47;;
12816;SDS011;6473;51.552;6.716;2022-12-11T01:45:35;60.37;;;19.00;;
12816;SDS011;6473;51.552;6.716;2022-12-11T01:48:07;57.37;;;19.13;;
12816;SDS011;6473;51.552;6.716;2022-12-11T01:50:38;57.90;;;19.10;;
12816;SDS011;6473;51.552;6.716;2022-12-11T01:53:09;51.03;;;19.63;;
12816;SDS011;6473;51.552;6.716;2022-12-11T01:55:40;65.70;;;19.43;;
12816;SDS011;6473;51.552;6.716;2022-12-11T01:58:07;59.30;;;18.90;;
12816;SDS011;6473;51.552;6.716;2022-12-11T02:00:36;56.63;;;19.80;;
12816;SDS011;6473;51.552;6.716;2022-12-11T02:03:04;58.83;;;19.97;;
12816;SDS011;6473;51.552;6.716;2022-12-11T02:05:31;58.43;;;18.77;;
12816;SDS011;6473;51.552;6.716;2022-12-11T02:08:00;60.27;;;19.63;;
12816;SDS011;6473;51.552;6.716;2022-12-11T02:10:31;60.90;;;19.03;;
12816;SDS011;6473;51.552;6.716;2022-12-11T02:13:10;55.57;;;19.30;;
12816;SDS011;6473;51.552;6.716;2022-12-11T02:15:41;56.60;;;19.37;;
12816;SDS011;6473;51.552;6.716;2022-12-11T02:18:14;49.10;;;16.63;;
12816;SDS011;6473;51.552;6.716;2022-12-11T02:20:47;54.93;;;17.80;;
12816;SDS011;6473;51.552;6.716;2022-12-11T02:23:31;49.10;;;16.87;;
12816;SDS011;6473;51.552;6.716;2022-12-11T02:26:14;51.80;;;16.40;;
12816;SDS011;6473;51.552;6.716;2022-12-11T02:28:58;41.60;;;16.17;;
12816;SDS011;6473;51.552;6.716;2022-12-11T02:31:28;48.10;;;16.07;;
12816;SDS011;6473;51.552;6.716;2022-12-11T02:34:00;43.70;;;16.97;;
12816;SDS011;6473;51.552;6.716;2022-12-11T02:36:32;44.40;;;17.13;;
12816;SDS011;6473;51.552;6.716;2022-12-11T02:39:02;53.83;;;16.87;;
12816;SDS011;6473;51.552;6.716;2022-12-11T02:41:32;46.83;;;16.60;;
12816;SDS011;6473;51.552;6.716;2022-12-11T02:44:01;47.73;;;16.60;;
12816;SDS011;6473;51.552;6.716;2022-12-11T02:46:29;48.00;;;17.73;;
12816;SDS011;6473;51.552;6.716;2022-12-11T02:48:59;53.17;;;17.87;;
12816;SDS011;6473;51.552;6.716;2022-12-11T02:51:30;50.07;;;16.47;;
12816;SDS011;6473;51.552;6.716;2022-12-11T02:54:02;40.67;;;16.00;;
12816;SDS011;6473;51.552;6.716;2022-12-11T02:56:35;45.87;;;17.93;;
12816;SDS011;6473;51.552;6.716;2022-12-11T02:59:08;46.10;;;16.73;;
12816;SDS011;6473;51.552;6.716;2022-12-11T03:01:39;52.97;;;18.20;;
12816;SDS011;6473;51.552;6.716;2022-12-11T03:04:07;44.23;;;16.17;;
12816;SDS011;6473;51.552;6.716;2022-12-11T03:06:35;52.03;;;16.93;;
12816;SDS011;6473;51.552;6.716;2022-12-11T03:09:05;41.90;;;16.23;;
12816;SDS011;6473;51.552;6.716;2022-12-11T03:11:32;46.63;;;16.33;;
12816;SDS011;6473;51.552;6.716;2022-12-11T03:14:00;45.37;;;16.53;;
12816;SDS011;6473;51.552;6.716;2022-12-11T03:16:30;44.63;;;16.70;;
12816;SDS011;6473;51.552;6.716;2022-12-11T03:19:03;43.20;;;15.67;;
12816;SDS011;6473;51.552;6.716;2022-12-11T03:21:39;49.50;;;17.70;;
12816;SDS011;6473;51.552;6.716;2022-12-11T03:24:11;44.37;;;15.87;;
12816;SDS011;6473;51.552;6.716;2022-12-11T03:26:48;48.27;;;16.60;;
12816;SDS011;6473;51.552;6.716;2022-12-11T03:29:20;45.27;;;16.67;;
12816;SDS011;6473;51.552;6.716;2022-12-11T03:31:53;53.07;;;17.77;;
12816;SDS011;6473;51.552;6.716;2022-12-11T03:34:26;49.17;;;16.97;;
12816;SDS011;6473;51.552;6.716;2022-12-11T03:37:00;50.50;;;16.77;;
12816;SDS011;6473;51.552;6.716;2022-12-11T03:39:29;44.33;;;16.70;;
12816;SDS011;6473;51.552;6.716;2022-12-11T03:41:58;44.07;;;17.43;;
12816;SDS011;6473;51.552;6.716;2022-12-11T03:44:28;46.23;;;17.17;;
12816;SDS011;6473;51.552;6.716;2022-12-11T03:46:58;44.50;;;17.50;;
12816;SDS011;6473;51.552;6.716;2022-12-11T03:49:27;45.87;;;17.47;;
12816;SDS011;6473;51.552;6.716;2022-12-11T03:51:58;46.53;;;16.67;;
12816;SDS011;6473;51.552;6.716;2022-12-11T03:54:26;54.07;;;17.17;;
12816;SDS011;6473;51.552;6.716;2022-12-11T03:56:54;41.77;;;17.13;;
12816;SDS011;6473;51.552;6.716;2022-12-11T03:59:23;48.80;;;16.60;;
12816;SDS011;6473;51.552;6.716;2022-12-11T04:01:50;43.37;;;17.13;;
12816;SDS011;6473;51.552;6.716;2022-12-11T04:04:22;51.83;;;18.23;;
12816;SDS011;6473;51.552;6.716;2022-12-11T04:06:49;46.63;;;18.23;;
12816;SDS011;6473;51.552;6.716;2022-12-11T04:11:51;42.73;;;17.53;;
12816;SDS011;6473;51.552;6.716;2022-12-11T04:14:18;49.37;;;17.80;;
12816;SDS011;6473;51.552;6.716;2022-12-11T04:17:03;50.73;;;18.30;;
12816;SDS011;6473;51.552;6.716;2022-12-11T04:19:32;46.27;;;18.23;;
12816;SDS011;6473;51.552;6.716;2022-12-11T04:22:17;46.87;;;18.07;;
12816;SDS011;6473;51.552;6.716;2022-12-11T04:25:01;48.87;;;17.17;;
12816;SDS011;6473;51.552;6.716;2022-12-11T04:27:30;44.87;;;18.53;;
12816;SDS011;6473;51.552;6.716;2022-12-11T04:30:18;51.53;;;17.93;;
12816;SDS011;6473;51.552;6.716;2022-12-11T04:32:46;40.57;;;16.20;;
12816;SDS011;6473;51.552;6.716;2022-12-11T04:35:14;38.43;;;16.27;;
12816;SDS011;6473;51.552;6.716;2022-12-11T04:37:42;38.80;;;17.77;;
12816;SDS011;6473;51.552;6.716;2022-12-11T04:40:10;45.23;;;17.27;;
12816;SDS011;6473;51.552;6.716;2022-12-11T04:42:39;45.63;;;16.70;;
12816;SDS011;6473;51.552;6.716;2022-12-11T04:45:07;36.80;;;16.37;;
12816;SDS011;6473;51.552;6.716;2022-12-11T04:47:35;39.47;;;16.20;;
12816;SDS011;6473;51.552;6.716;2022-12-11T04:50:02;44.77;;;16.63;;
12816;SDS011;6473;51.552;6.716;2022-12-11T04:52:32;42.70;;;17.47;;
12816;SDS011;6473;51.552;6.716;2022-12-11T04:54:59;38.60;;;15.33;;
12816;SDS011;6473;51.552;6.716;2022-12-11T04:57:26;39.97;;;16.43;;
12816;SDS011;6473;51.552;6.716;2022-12-11T04:59:53;39.57;;;16.33;;
12816;SDS011;6473;51.552;6.716;2022-12-11T05:02:20;42.73;;;16.07;;
12816;SDS011;6473;51.552;6.716;2022-12-11T05:04:48;35.70;;;16.07;;
12816;SDS011;6473;51.552;6.716;2022-12-11T05:07:15;40.30;;;17.17;;
12816;SDS011;6473;51.552;6.716;2022-12-11T05:09:43;39.17;;;16.10;;
12816;SDS011;6473;51.552;6.716;2022-12-11T05:12:10;39.57;;;16.63;;
12816;SDS011;6473;51.552;6.716;2022-12-11T05:14:37;35.17;;;16.07;;
12816;SDS011;6473;51.552;6.716;2022-12-11T05:17:04;35.73;;;16.63;;
12816;SDS011;6473;51.552;6.716;2022-12-11T05:19:32;40.90;;;16.40;;
12816;SDS011;6473;51.552;6.716;2022-12-11T05:21:59;35.57;;;15.10;;
12816;SDS011;6473;51.552;6.716;2022-12-11T05:24:26;39.30;;;15.67;;
12816;SDS011;6473;51.552;6.716;2022-12-11T05:26:54;36.67;;;16.03;;
12816;SDS011;6473;51.552;6.716;2022-12-11T05:29:21;36.07;;;16.50;;
12816;SDS011;6473;51.552;6.716;2022-12-11T05:31:48;32.30;;;14.93;;
12816;SDS011;6473;51.552;6.716;2022-12-11T05:34:15;30.40;;;15.10;;
12816;SDS011;6473;51.552;6.716;2022-12-11T05:36:42;37.63;;;16.57;;
12816;SDS011;6473;51.552;6.716;2022-12-11T05:39:09;34.93;;;15.03;;
12816;SDS011;6473;51.552;6.716;2022-12-11T05:41:37;34.37;;;15.70;;
12816;SDS011;6473;51.552;6.716;2022-12-11T05:44:06;35.93;;;15.97;;
12816;SDS011;6473;51.552;6.716;2022-12-11T05:46:36;35.20;;;15.60;;
12816;SDS011;6473;51.552;6.716;2022-12-11T05:49:03;34.50;;;15.17;;
12816;SDS011;6473;51.552;6.716;2022-12-11T05:51:31;33.83;;;15.10;;
12816;SDS011;6473;51.552;6.716;2022-12-11T05:53:59;34.27;;;15.53;;
12816;SDS011;6473;51.552;6.716;2022-12-11T05:56:26;33.03;;;15.77;;
12816;SDS011;6473;51.552;6.716;2022-12-11T05:58:55;34.40;;;15.43;;
12816;SDS011;6473;51.552;6.716;2022-12-11T06:01:24;37.37;;;16.17;;
12816;SDS011;6473;51.552;6.716;2022-12-11T06:03:52;37.37;;;16.17;;
12816;SDS011;6473;51.552;6.716;2022-12-11T06:06:20;36.73;;;16.30;;
12816;SDS011;6473;51.552;6.716;2022-12-11T06:08:48;36.33;;;15.50;;
12816;SDS011;6473;51.552;6.716;2022-12-11T06:11:15;32.90;;;15.83;;
12816;SDS011;6473;51.552;6.716;2022-12-11T06:13:43;34.20;;;16.17;;
12816;SDS011;6473;51.552;6.716;2022-12-11T06:16:10;36.73;;;16.90;;
12816;SDS011;6473;51.552;6.716;2022-12-11T06:18:39;33.17;;;16.27;;
12816;SDS011;6473;51.552;6.716;2022-12-11T06:21:11;37.00;;;16.27;;
12816;SDS011;6473;51.552;6.716;2022-12-11T06:23:39;33.00;;;15.73;;
12816;SDS011;6473;51.552;6.716;2022-12-11T06:26:07;30.77;;;16.13;;
12816;SDS011;6473;51.552;6.716;2022-12-11T06:28:34;36.40;;;16.80;;
12816;SDS011;6473;51.552;6.716;2022-12-11T06:31:01;34.93;;;16.80;;
12816;SDS011;6473;51.552;6.716;2022-12-11T06:33:29;38.37;;;16.60;;
12816;SDS011;6473;51.552;6.716;2022-12-11T06:36:01;34.60;;;17.00;;
12816;SDS011;6473;51.552;6.716;2022-12-11T06:38:29;34.33;;;16.13;;
12816;SDS011;6473;51.552;6.716;2022-12-11T06:40:56;33.10;;;15.87;;
12816;SDS011;6473;51.552;6.716;2022-12-11T06:43:25;35.00;;;15.67;;
12816;SDS011;6473;51.552;6.716;2022-12-11T06:45:52;39.83;;;17.20;;
12816;SDS011;6473;51.552;6.716;2022-12-11T06:48:19;35.70;;;16.43;;
12816;SDS011;6473;51.552;6.716;2022-12-11T06:50:46;34.90;;;15.70;;
12816;SDS011;6473;51.552;6.716;2022-12-11T06:53:15;35.97;;;15.93;;
12816;SDS011;6473;51.552;6.716;2022-12-11T06:55:42;35.10;;;16.77;;
12816;SDS011;6473;51.552;6.716;2022-12-11T06:58:09;33.13;;;15.40;;
12816;SDS011;6473;51.552;6.716;2022-12-11T07:00:37;37.17;;;15.93;;
12816;SDS011;6473;51.552;6.716;2022-12-11T07:03:04;32.53;;;15.30;;
12816;SDS011;6473;51.552;6.716;2022-12-11T07:05:32;37.07;;;17.27;;
12816;SDS011;6473;51.552;6.716;2022-12-11T07:08:00;35.10;;;16.30;;
12816;SDS011;6473;51.552;6.716;2022-12-11T07:10:28;34.63;;;15.90;;
12816;SDS011;6473;51.552;6.716;2022-12-11T07:12:56;36.40;;;16.60;;
12816;SDS011;6473;51.552;6.716;2022-12-11T07:15:23;34.57;;;16.47;;
12816;SDS011;6473;51.552;6.716;2022-12-11T07:17:50;32.93;;;16.83;;
12816;SDS011;6473;51.552;6.716;2022-12-11T07:20:17;35.40;;;16.40;;
12816;SDS011;6473;51.552;6.716;2022-12-11T07:22:44;30.93;;;15.73;;
12816;SDS011;6473;51.552;6.716;2022-12-11T07:25:12;31.30;;;15.43;;
12816;SDS011;6473;51.552;6.716;2022-12-11T07:27:41;35.33;;;16.53;;
12816;SDS011;6473;51.552;6.716;2022-12-11T07:30:08;32.77;;;15.57;;
12816;SDS011;6473;51.552;6.716;2022-12-11T07:32:36;36.87;;;17.07;;
12816;SDS011;6473;51.552;6.716;2022-12-11T07:35:04;30.97;;;16.30;;
12816;SDS011;6473;51.552;6.716;2022-12-11T07:37:31;30.43;;;15.53;;
12816;SDS011;6473;51.552;6.716;2022-12-11T07:39:58;33.70;;;16.67;;
12816;SDS011;6473;51.552;6.716;2022-12-11T07:42:25;29.30;;;15.57;;
12816;SDS011;6473;51.552;6.716;2022-12-11T07:44:55;31.37;;;15.97;;
12816;SDS011;6473;51.552;6.716;2022-12-11T07:47:22;32.83;;;15.93;;
12816;SDS011;6473;51.552;6.716;2022-12-11T07:49:49;26.67;;;14.93;;
12816;SDS011;6473;51.552;6.716;2022-12-11T08:00:18;32.47;;;14.90;;
12816;SDS011;6473;51.552;6.716;2022-12-11T08:02:45;29.03;;;14.30;;
12816;SDS011;6473;51.552;6.716;2022-12-11T08:05:12;28.47;;;13.93;;
12816;SDS011;6473;51.552;6.716;2022-12-11T08:07:40;21.80;;;10.97;;
12816;SDS011;6473;51.552;6.716;2022-12-11T08:10:13;22.17;;;11.37;;
12816;SDS011;6473;51.552;6.716;2022-12-11T08:12:40;22.00;;;11.10;;
12816;SDS011;6473;51.552;6.716;2022-12-11T08:15:08;20.53;;;11.03;;
12816;SDS011;6473;51.552;6.716;2022-12-11T08:17:36;28.10;;;12.23;;
12816;SDS011;6473;51.552;6.716;2022-12-11T08:20:04;22.43;;;11.83;;
12816;SDS011;6473;51.552;6.716;2022-12-11T08:22:32;22.47;;;11.07;;
12816;SDS011;6473;51.552;6.716;2022-12-11T08:25:00;21.40;;;11.53;;
12816;SDS011;6473;51.552;6.716;2022-12-11T08:27:28;25.03;;;11.47;;
12816;SDS011;6473;51.552;6.716;2022-12-11T08:29:55;24.07;;;10.47;;
12816;SDS011;6473;51.552;6.716;2022-12-11T08:32:22;20.97;;;11.00;;
12816;SDS011;6473;51.552;6.716;2022-12-11T08:34:56;21.23;;;11.20;;
12816;SDS011;6473;51.552;6.716;2022-12-11T08:37:23;20.97;;;10.63;;
12816;SDS011;6473;51.552;6.716;2022-12-11T08:39:50;19.03;;;10.70;;
12816;SDS011;6473;51.552;6.716;2022-12-11T08:42:17;23.57;;;9.90;;
12816;SDS011;6473;51.552;6.716;2022-12-11T08:44:45;19.83;;;10.63;;
12816;SDS011;6473;51.552;6.716;2022-12-11T08:47:13;16.67;;;9.37;;
12816;SDS011;6473;51.552;6.716;2022-12-11T08:49:40;19.83;;;10.53;;
12816;SDS011;6473;51.552;6.716;2022-12-11T08:52:09;19.30;;;10.93;;
12816;SDS011;6473;51.552;6.716;2022-12-11T08:54:36;22.50;;;10.90;;
12816;SDS011;6473;51.552;6.716;2022-12-11T08:57:03;22.47;;;11.27;;
12816;SDS011;6473;51.552;6.716;2022-12-11T08:59:30;20.43;;;10.97;;
12816;SDS011;6473;51.552;6.716;2022-12-11T09:01:57;20.17;;;11.10;;
12816;SDS011;6473;51.552;6.716;2022-12-11T09:04:25;23.77;;;11.27;;
12816;SDS011;6473;51.552;6.716;2022-12-11T09:06:52;18.80;;;11.20;;
12816;SDS011;6473;51.552;6.716;2022-12-11T09:09:20;19.87;;;11.47;;
12816;SDS011;6473;51.552;6.716;2022-12-11T09:11:47;19.37;;;10.87;;
12816;SDS011;6473;51.552;6.716;2022-12-11T09:14:15;18.90;;;10.57;;
12816;SDS011;6473;51.552;6.716;2022-12-11T09:16:42;20.83;;;10.77;;
12816;SDS011;6473;51.552;6.716;2022-12-11T09:19:10;19.77;;;11.20;;
12816;SDS011;6473;51.552;6.716;2022-12-11T09:21:39;21.83;;;11.23;;
12816;SDS011;6473;51.552;6.716;2022-12-11T09:24:08;22.23;;;11.57;;
12816;SDS011;6473;51.552;6.716;2022-12-11T09:26:38;21.70;;;11.60;;
12816;SDS011;6473;51.552;6.716;2022-12-11T09:29:05;19.30;;;10.90;;
12816;SDS011;6473;51.552;6.716;2022-12-11T09:31:34;20.90;;;10.93;;
12816;SDS011;6473;51.552;6.716;2022-12-11T09:34:03;19.53;;;10.57;;
12816;SDS011;6473;51.552;6.716;2022-12-11T09:36:31;15.93;;;9.53;;
12816;SDS011;6473;51.552;6.716;2022-12-11T09:38:59;16.70;;;10.23;;
12816;SDS011;6473;51.552;6.716;2022-12-11T09:41:34;21.37;;;10.70;;
12816;SDS011;6473;51.552;6.716;2022-12-11T09:44:15;16.23;;;10.30;;
12816;SDS011;6473;51.552;6.716;2022-12-11T09:46:46;20.23;;;11.20;;
12816;SDS011;6473;51.552;6.716;2022-12-11T09:49:17;19.70;;;10.30;;
12816;SDS011;6473;51.552;6.716;2022-12-11T09:51:50;23.07;;;11.77;;
12816;SDS011;6473;51.552;6.716;2022-12-11T09:54:25;19.27;;;11.60;;
12816;SDS011;6473;51.552;6.716;2022-12-11T09:56:55;19.00;;;10.80;;
12816;SDS011;6473;51.552;6.716;2022-12-11T09:59:31;18.43;;;10.17;;
12816;SDS011;6473;51.552;6.716;2022-12-11T10:02:11;19.07;;;11.53;;
12816;SDS011;6473;51.552;6.716;2022-12-11T10:04:49;18.40;;;10.00;;
12816;SDS011;6473;51.552;6.716;2022-12-11T10:07:26;22.10;;;10.80;;
12816;SDS011;6473;51.552;6.716;2022-12-11T10:10:02;19.17;;;9.73;;
12816;SDS011;6473;51.552;6.716;2022-12-11T10:12:39;18.50;;;9.97;;
12816;SDS011;6473;51.552;6.716;2022-12-11T10:15:28;17.47;;;9.90;;
12816;SDS011;6473;51.552;6.716;2022-12-11T10:18:02;21.93;;;10.57;;
12816;SDS011;6473;51.552;6.716;2022-12-11T10:20:35;19.70;;;11.03;;
12816;SDS011;6473;51.552;6.716;2022-12-11T10:23:07;17.37;;;9.93;;
12816;SDS011;6473;51.552;6.716;2022-12-11T10:26:27;17.70;;;9.97;;
12816;SDS011;6473;51.552;6.716;2022-12-11T10:28:55;17.80;;;10.63;;
12816;SDS011;6473;51.552;6.716;2022-12-11T10:31:28;15.83;;;9.53;;
12816;SDS011;6473;51.552;6.716;2022-12-11T10:34:04;15.60;;;9.10;;
12816;SDS011;6473;51.552;6.716;2022-12-11T10:36:38;16.37;;;9.10;;
12816;SDS011;6473;51.552;6.716;2022-12-11T10:39:10;14.30;;;9.20;;
12816;SDS011;6473;51.552;6.716;2022-12-11T10:41:40;16.73;;;9.47;;
12816;SDS011;6473;51.552;6.716;2022-12-11T10:44:16;14.77;;;9.87;;
12816;SDS011;6473;51.552;6.716;2022-12-11T10:46:45;16.33;;;9.40;;
12816;SDS011;6473;51.552;6.716;2022-12-11T10:49:20;17.07;;;8.83;;
12816;SDS011;6473;51.552;6.716;2022-12-11T10:51:49;13.93;;;8.60;;
12816;SDS011;6473;51.552;6.716;2022-12-11T10:54:28;14.30;;;9.10;;
12816;SDS011;6473;51.552;6.716;2022-12-11T10:56:58;13.03;;;8.90;;
12816;SDS011;6473;51.552;6.716;2022-12-11T10:59:29;14.57;;;8.73;;
12816;SDS011;6473;51.552;6.716;2022-12-11T11:02:02;13.67;;;8.60;;
12816;SDS011;6473;51.552;6.716;2022-12-11T11:04:31;12.93;;;8.47;;
12816;SDS011;6473;51.552;6.716;2022-12-11T11:07:02;14.97;;;8.70;;
12816;SDS011;6473;51.552;6.716;2022-12-11T11:09:36;14.83;;;8.00;;
12816;SDS011;6473;51.552;6.716;2022-12-11T11:12:16;13.87;;;8.50;;
12816;SDS011;6473;51.552;6.716;2022-12-11T11:14:44;9.87;;;6.83;;
12816;SDS011;6473;51.552;6.716;2022-12-11T11:17:14;12.40;;;7.80;;
12816;SDS011;6473;51.552;6.716;2022-12-11T11:19:45;12.20;;;7.63;;
12816;SDS011;6473;51.552;6.716;2022-12-11T11:22:14;12.50;;;7.90;;
12816;SDS011;6473;51.552;6.716;2022-12-11T11:24:43;11.07;;;7.57;;
12816;SDS011;6473;51.552;6.716;2022-12-11T11:27:12;13.57;;;7.93;;
12816;SDS011;6473;51.552;6.716;2022-12-11T11:29:48;11.13;;;6.87;;
12816;SDS011;6473;51.552;6.716;2022-12-11T11:32:21;10.70;;;7.27;;
12816;SDS011;6473;51.552;6.716;2022-12-11T11:35:04;14.53;;;7.40;;
12816;SDS011;6473;51.552;6.716;2022-12-11T11:37:44;13.37;;;7.17;;
12816;SDS011;6473;51.552;6.716;2022-12-11T11:43:20;12.10;;;7.77;;
12816;SDS011;6473;51.552;6.716;2022-12-11T11:46:54;13.63;;;7.57;;
12816;SDS011;6473;51.552;6.716;2022-12-11T11:49:30;11.47;;;7.37;;
12816;SDS011;6473;51.552;6.716;2022-12-11T11:52:38;14.23;;;7.57;;
12816;SDS011;6473;51.552;6.716;2022-12-11T11:55:13;12.63;;;8.03;;
12816;SDS011;6473;51.552;6.716;2022-12-11T11:57:44;11.80;;;7.33;;
12816;SDS011;6473;51.552;6.716;2022-12-11T12:00:19;13.23;;;8.30;;
12816;SDS011;6473;51.552;6.716;2022-12-11T12:02:47;14.40;;;8.20;;
12816;SDS011;6473;51.552;6.716;2022-12-11T12:05:17;13.70;;;8.70;;
12816;SDS011;6473;51.552;6.716;2022-12-11T12:07:53;15.80;;;8.60;;
12816;SDS011;6473;51.552;6.716;2022-12-11T12:19:41;14.53;;;8.43;;
12816;SDS011;6473;51.552;6.716;2022-12-11T12:22:16;14.20;;;8.03;;
12816;SDS011;6473;51.552;6.716;2022-12-11T12:24:59;13.83;;;8.67;;
12816;SDS011;6473;51.552;6.716;2022-12-11T12:27:37;17.17;;;8.40;;
12816;SDS011;6473;51.552;6.716;2022-12-11T12:30:13;13.77;;;8.33;;
12816;SDS011;6473;51.552;6.716;2022-12-11T12:32:45;12.80;;;8.73;;
12816;SDS011;6473;51.552;6.716;2022-12-11T12:35:27;13.63;;;8.30;;
12816;SDS011;6473;51.552;6.716;2022-12-11T12:38:04;14.90;;;8.00;;
12816;SDS011;6473;51.552;6.716;2022-12-11T12:40:41;12.03;;;8.30;;
12816;SDS011;6473;51.552;6.716;2022-12-11T12:43:22;13.43;;;8.23;;
12816;SDS011;6473;51.552;6.716;2022-12-11T12:46:03;15.03;;;8.60;;
12816;SDS011;6473;51.552;6.716;2022-12-11T12:48:39;12.70;;;8.40;;
12816;SDS011;6473;51.552;6.716;2022-12-11T12:51:08;14.33;;;8.27;;
12816;SDS011;6473;51.552;6.716;2022-12-11T12:53:53;13.73;;;8.43;;
12816;SDS011;6473;51.552;6.716;2022-12-11T12:56:22;16.00;;;8.50;;
12816;SDS011;6473;51.552;6.716;2022-12-11T12:58:51;14.67;;;8.90;;
12816;SDS011;6473;51.552;6.716;2022-12-11T13:01:19;16.27;;;9.37;;
12816;SDS011;6473;51.552;6.716;2022-12-11T13:03:53;13.97;;;8.97;;
12816;SDS011;6473;51.552;6.716;2022-12-11T13:06:32;13.43;;;8.83;;
12816;SDS011;6473;51.552;6.716;2022-12-11T13:31:54;16.23;;;10.00;;
12816;SDS011;6473;51.552;6.716;2022-12-11T13:34:24;13.37;;;8.57;;
12816;SDS011;6473;51.552;6.716;2022-12-11T13:36:54;13.93;;;9.63;;
12816;SDS011;6473;51.552;6.716;2022-12-11T13:39:22;14.73;;;9.37;;
12816;SDS011;6473;51.552;6.716;2022-12-11T13:41:52;13.87;;;9.30;;
12816;SDS011;6473;51.552;6.716;2022-12-11T13:44:24;15.63;;;9.63;;
12816;SDS011;6473;51.552;6.716;2022-12-11T13:46:55;15.60;;;9.77;;
12816;SDS011;6473;51.552;6.716;2022-12-11T13:49:28;12.97;;;9.13;;
12816;SDS011;6473;51.552;6.716;2022-12-11T13:52:00;15.07;;;9.77;;
12816;SDS011;6473;51.552;6.716;2022-12-11T13:54:28;14.40;;;9.73;;
12816;SDS011;6473;51.552;6.716;2022-12-11T13:57:01;13.70;;;8.80;;
12816;SDS011;6473;51.552;6.716;2022-12-11T13:59:48;16.20;;;10.20;;
12816;SDS011;6473;51.552;6.716;2022-12-11T14:02:21;15.03;;;9.23;;
12816;SDS011;6473;51.552;6.716;2022-12-11T14:04:53;15.07;;;10.07;;
12816;SDS011;6473;51.552;6.716;2022-12-11T14:07:24;14.97;;;9.80;;
12816;SDS011;6473;51.552;6.716;2022-12-11T14:41:39;15.83;;;9.33;;
12816;SDS011;6473;51.552;6.716;2022-12-11T14:44:13;15.73;;;9.80;;
12816;SDS011;6473;51.552;6.716;2022-12-11T14:46:42;13.37;;;9.10;;
12816;SDS011;6473;51.552;6.716;2022-12-11T14:49:15;15.23;;;9.33;;
12816;SDS011;6473;51.552;6.716;2022-12-11T14:52:01;17.30;;;9.33;;
12816;SDS011;6473;51.552;6.716;2022-12-11T14:54:30;14.03;;;8.57;;
12816;SDS011;6473;51.552;6.716;2022-12-11T14:57:01;16.40;;;9.40;;
12816;SDS011;6473;51.552;6.716;2022-12-11T14:59:32;15.30;;;9.37;;
12816;SDS011;6473;51.552;6.716;2022-12-11T15:02:20;14.07;;;8.90;;
12816;SDS011;6473;51.552;6.716;2022-12-11T15:05:11;14.13;;;8.63;;
12816;SDS011;6473;51.552;6.716;2022-12-11T15:07:42;13.33;;;9.23;;
12816;SDS011;6473;51.552;6.716;2022-12-11T16:01:45;7.63;;;4.47;;
12816;SDS011;6473;51.552;6.716;2022-12-11T16:04:15;10.00;;;5.73;;
12816;SDS011;6473;51.552;6.716;2022-12-11T16:06:42;10.83;;;6.67;;
12816;SDS011;6473;51.552;6.716;2022-12-11T16:09:11;11.60;;;6.00;;
12816;SDS011;6473;51.552;6.716;2022-12-11T16:11:38;8.53;;;5.30;;
12816;SDS011;6473;51.552;6.716;2022-12-11T16:14:06;10.30;;;5.70;;
12816;SDS011;6473;51.552;6.716;2022-12-11T16:16:33;9.37;;;5.80;;
12816;SDS011;6473;51.552;6.716;2022-12-11T16:19:02;8.77;;;6.00;;
12816;SDS011;6473;51.552;6.716;2022-12-11T16:21:29;10.10;;;6.27;;
12816;SDS011;6473;51.552;6.716;2022-12-11T16:23:57;8.33;;;5.73;;
12816;SDS011;6473;51.552;6.716;2022-12-11T16:26:24;11.97;;;5.93;;
12816;SDS011;6473;51.552;6.716;2022-12-11T16:28:52;8.97;;;6.20;;
12816;SDS011;6473;51.552;6.716;2022-12-11T16:31:20;11.83;;;6.97;;
12816;SDS011;6473;51.552;6.716;2022-12-11T16:33:47;11.13;;;7.63;;
12816;SDS011;6473;51.552;6.716;2022-12-11T16:36:16;10.90;;;7.20;;
12816;SDS011;6473;51.552;6.716;2022-12-11T16:38:46;13.90;;;7.60;;
12816;SDS011;6473;51.552;6.716;2022-12-11T16:41:14;14.37;;;7.87;;
12816;SDS011;6473;51.552;6.716;2022-12-11T16:43:41;10.23;;;7.47;;
12816;SDS011;6473;51.552;6.716;2022-12-11T16:46:08;12.43;;;7.60;;
12816;SDS011;6473;51.552;6.716;2022-12-11T16:48:35;11.97;;;7.20;;
12816;SDS011;6473;51.552;6.716;2022-12-11T16:51:03;12.57;;;7.97;;
12816;SDS011;6473;51.552;6.716;2022-12-11T16:53:31;11.70;;;7.67;;
12816;SDS011;6473;51.552;6.716;2022-12-11T16:55:59;10.33;;;7.03;;
12816;SDS011;6473;51.552;6.716;2022-12-11T16:58:26;12.20;;;7.77;;
12816;SDS011;6473;51.552;6.716;2022-12-11T17:00:53;12.80;;;7.00;;
12816;SDS011;6473;51.552;6.716;2022-12-11T17:03:26;10.10;;;7.17;;
12816;SDS011;6473;51.552;6.716;2022-12-11T17:05:54;10.83;;;6.87;;
12816;SDS011;6473;51.552;6.716;2022-12-11T17:08:22;14.20;;;7.87;;
12816;SDS011;6473;51.552;6.716;2022-12-11T17:10:51;14.03;;;7.23;;
12816;SDS011;6473;51.552;6.716;2022-12-11T17:13:18;10.17;;;7.23;;
12816;SDS011;6473;51.552;6.716;2022-12-11T17:15:45;10.93;;;7.33;;